Pagrindinis puslapis
METAR-TAF:

METAR-TAF

Oro uostai :

Trevico, Italija

platuma: 41-03N, ilguma: 015-14E, Aukštis: 1085 m

Dabartinis oras

Ataskaita buvo paskelbta 56 minutes, ne 09:55 UTC
Vėjas 5 kt iš Rytų, svyruoja nuo Šiaurės/Šiaurės Rytų ir Pietų/Pietryčių
Temperatūra 13°C
Drėgmė 72%
Slėgis 1024 hPa
Matomumas 10 km arba daugiau
nėra debesų žemiau 1500 m ir nėra kamuolinių lietaus debesų

METAR: LIRT 210955Z 09005KT 030V160 CAVOK 13/08 Q1024 RMK FEW FEW066 MON LIB VAL NIL VIS MIN 9999

Laikas: 12:51 (10:51 UTC)


TAF: trūkstamas

Orai ataskaitas ir orų prognozės (METAR, TAF).

turimą stotys yra geltonos ir raudonos taškus žemėlapyje.

Perkelti pele per norėdami pamatyti stoties vardą.

Tada spustelėkite, norėdami matyti oro stebėjimo ir prognozės.

Norėdami pakeisti žemėlapį: spustelėkite ant žalios mygtukų su juodo kryžiaus žemyn,; žalią mygtuką su brūkšneliu, jei norite nutolinti; arba žalių rodyklių gretimoms žemėlapius.


METAR-TAF: